CG Adelie — NTRK — position and weather

sailwx.info

Track history (hours):
 
Tides and Currents Weather Stations Pressure Air Temp Water Temp Dewpoint Dewpoint Depression Visibility Wind Speed Wind Dir Waves Ship Positions

CG Adelie

Last reported at 2018-Jun-24 15:19 UTC. Time now 2018-Jun-25 00:43 UTC.
Position N 48°14' W 124°02'.

Length 26 m; draft 1.7 m.

Type: Law enforcement. MMSI: 366999652.

Date/timePositionNaut miles runAvg speedWind from/ knotsBaromVisibWave heightAir tempDewpointWater temp
2018-Jun-24 15:19N 48°14' W 124°02'617.4
2018-Jun-24 15:00N 48°16' W 124°10'815.8
2018-Jun-24 14:29N 48°20' W 124°21'715.6
2018-Jun-24 14:00N 48°23' W 124°31'3 6.6
2018-Jun-24 13:29N 48°22' W 124°36'0 0.0
2018-Jun-24 12:59N 48°22' W 124°36'0 0.0
2018-Jun-24 12:29N 48°22' W 124°36'0 0.0
2018-Jun-24 11:59N 48°22' W 124°36'0 0.0
2018-Jun-24 11:29N 48°22' W 124°36'0 0.0
2018-Jun-24 10:59N 48°22' W 124°36'0 0.0
2018-Jun-24 10:29N 48°22' W 124°36'0 0.0
2018-Jun-24 09:59N 48°22' W 124°36'0 0.0
2018-Jun-24 09:29N 48°22' W 124°36'0 0.0
2018-Jun-24 08:59N 48°22' W 124°36'0 0.1
2018-Jun-24 08:29N 48°22' W 124°36'0 0.1
2018-Jun-24 07:59N 48°22' W 124°36'0 0.0
2018-Jun-24 07:30N 48°22' W 124°36'0 0.0
2018-Jun-24 07:00N 48°22' W 124°36'0 0.0
2018-Jun-24 06:30N 48°22' W 124°36'0 0.0
2018-Jun-24 06:00N 48°22' W 124°36'0 0.0
2018-Jun-24 05:30N 48°22' W 124°36'0 0.1
2018-Jun-24 04:59N 48°22' W 124°36'0 0.1
2018-Jun-24 04:29N 48°22' W 124°36'0 0.1
2018-Jun-24 04:00N 48°22' W 124°36'4 8.0
2018-Jun-24 03:30N 48°25' W 124°41'815.6
2018-Jun-24 02:58N 48°18' W 124°48'7914.9
2018-Jun-23 21:41N 47°01' W 124°25'210.2
2018-Jun-23 21:30N 46°59' W 124°24'510.3
2018-Jun-23 21:00N 46°54' W 124°22'510.0
2018-Jun-23 20:30N 46°49' W 124°21'510.1
2018-Jun-23 20:00N 46°44' W 124°19'510.1
2018-Jun-23 19:30N 46°40' W 124°17'5 9.7
2018-Jun-23 19:00N 46°35' W 124°19'3 5.8
2018-Jun-23 18:30N 46°32' W 124°17'5 9.5
2018-Jun-23 18:00N 46°28' W 124°13'612.2
2018-Jun-23 17:30N 46°22' W 124°11'611.5
2018-Jun-23 17:00N 46°17' W 124°09'4 8.7
2018-Jun-23 16:30N 46°15' W 124°03'611.1
2018-Jun-23 16:00N 46°12' W 123°56'4 7.6
2018-Jun-23 15:30N 46°12' W 123°51'0 0.7
2018-Jun-23 15:00N 46°12' W 123°50'0 0.1
2018-Jun-23 14:30N 46°12' W 123°50'4 7.1
2018-Jun-23 14:00N 46°12' W 123°55'510.0
2018-Jun-23 13:30N 46°15' W 124°01'510.3
2018-Jun-23 13:00N 46°13' W 124°08'5 9.4
2018-Jun-23 12:30N 46°11' W 124°13'510.6
2018-Jun-23 12:00N 46°05' W 124°13'610.9
2018-Jun-23 11:28N 45°59' W 124°13'4 9.5
2018-Jun-23 11:00N 45°55' W 124°12'4 7.6
2018-Jun-23 10:30N 45°51' W 124°12'4 8.0
2018-Jun-23 10:00N 45°47' W 124°12'4 8.2
2018-Jun-23 09:30N 45°43' W 124°12'4 7.3
2018-Jun-23 09:00N 45°40' W 124°12'4 8.1
2018-Jun-23 08:30N 45°35' W 124°11'4 8.8
2018-Jun-23 08:00N 45°31' W 124°11'4 8.4
2018-Jun-23 07:30N 45°27' W 124°11'  
Track history (hours):
 
Tides and Currents Weather Stations Pressure Air Temp Water Temp Dewpoint Dewpoint Depression Visibility Wind Speed Wind Dir Waves Ship Positions

CG Adelie

Last reported at 2018-Jun-24 15:19 UTC. Time now 2018-Jun-25 00:43 UTC.
Position N 48°14' W 124°02'.

Length 26 m; draft 1.7 m.

Type: Law enforcement. MMSI: 366999652.

Date/timePositionNaut miles runAvg speedWind from/ knotsBaromVisibWave heightAir tempDewpointWater temp
2018-Jun-24 15:19N 48°14' W 124°02'617.4
2018-Jun-24 15:00N 48°16' W 124°10'815.8
2018-Jun-24 14:29N 48°20' W 124°21'715.6
2018-Jun-24 14:00N 48°23' W 124°31'3 6.6
2018-Jun-24 13:29N 48°22' W 124°36'0 0.0
2018-Jun-24 12:59N 48°22' W 124°36'0 0.0
2018-Jun-24 12:29N 48°22' W 124°36'0 0.0
2018-Jun-24 11:59N 48°22' W 124°36'0 0.0
2018-Jun-24 11:29N 48°22' W 124°36'0 0.0
2018-Jun-24 10:59N 48°22' W 124°36'0 0.0
2018-Jun-24 10:29N 48°22' W 124°36'0 0.0
2018-Jun-24 09:59N 48°22' W 124°36'0 0.0
2018-Jun-24 09:29N 48°22' W 124°36'0 0.0
2018-Jun-24 08:59N 48°22' W 124°36'0 0.1
2018-Jun-24 08:29N 48°22' W 124°36'0 0.1
2018-Jun-24 07:59N 48°22' W 124°36'0 0.0
2018-Jun-24 07:30N 48°22' W 124°36'0 0.0
2018-Jun-24 07:00N 48°22' W 124°36'0 0.0
2018-Jun-24 06:30N 48°22' W 124°36'0 0.0
2018-Jun-24 06:00N 48°22' W 124°36'0 0.0
2018-Jun-24 05:30N 48°22' W 124°36'0 0.1
2018-Jun-24 04:59N 48°22' W 124°36'0 0.1
2018-Jun-24 04:29N 48°22' W 124°36'0 0.1
2018-Jun-24 04:00N 48°22' W 124°36'4 8.0
2018-Jun-24 03:30N 48°25' W 124°41'815.6
2018-Jun-24 02:58N 48°18' W 124°48'7914.9
2018-Jun-23 21:41N 47°01' W 124°25'210.2
2018-Jun-23 21:30N 46°59' W 124°24'510.3
2018-Jun-23 21:00N 46°54' W 124°22'510.0
2018-Jun-23 20:30N 46°49' W 124°21'510.1
2018-Jun-23 20:00N 46°44' W 124°19'510.1
2018-Jun-23 19:30N 46°40' W 124°17'5 9.7
2018-Jun-23 19:00N 46°35' W 124°19'3 5.8
2018-Jun-23 18:30N 46°32' W 124°17'5 9.5
2018-Jun-23 18:00N 46°28' W 124°13'612.2
2018-Jun-23 17:30N 46°22' W 124°11'611.5
2018-Jun-23 17:00N 46°17' W 124°09'4 8.7
2018-Jun-23 16:30N 46°15' W 124°03'611.1
2018-Jun-23 16:00N 46°12' W 123°56'4 7.6
2018-Jun-23 15:30N 46°12' W 123°51'0 0.7
2018-Jun-23 15:00N 46°12' W 123°50'0 0.1
2018-Jun-23 14:30N 46°12' W 123°50'4 7.1
2018-Jun-23 14:00N 46°12' W 123°55'510.0
2018-Jun-23 13:30N 46°15' W 124°01'510.3
2018-Jun-23 13:00N 46°13' W 124°08'5 9.4
2018-Jun-23 12:30N 46°11' W 124°13'510.6
2018-Jun-23 12:00N 46°05' W 124°13'610.9
2018-Jun-23 11:28N 45°59' W 124°13'4 9.5
2018-Jun-23 11:00N 45°55' W 124°12'4 7.6
2018-Jun-23 10:30N 45°51' W 124°12'4 8.0
2018-Jun-23 10:00N 45°47' W 124°12'4 8.2
2018-Jun-23 09:30N 45°43' W 124°12'4 7.3
2018-Jun-23 09:00N 45°40' W 124°12'4 8.1
2018-Jun-23 08:30N 45°35' W 124°11'4 8.8
2018-Jun-23 08:00N 45°31' W 124°11'4 8.4
2018-Jun-23 07:30N 45°27' W 124°11'  

Dump ship's entire track history